createdAt,value
2023-04-05T00:01:20.005Z,100.00
2023-04-05T00:03:54.508Z,100.00
2023-04-05T00:06:30.027Z,100.00
2023-04-05T00:09:05.202Z,100.00
2023-04-05T00:11:37.108Z,100.00
2023-04-05T00:14:04.623Z,100.00
2023-04-05T00:16:31.841Z,100.00
2023-04-05T00:19:00.126Z,100.00
2023-04-05T00:21:26.844Z,100.00
2023-04-05T00:23:59.738Z,100.00
2023-04-05T00:26:33.289Z,100.00
2023-04-05T00:28:59.915Z,100.00
2023-04-05T00:31:26.527Z,100.00
2023-04-05T00:33:53.276Z,100.00
2023-04-05T00:36:23.425Z,100.00
2023-04-05T00:38:50.193Z,100.00
2023-04-05T00:41:17.187Z,100.00
2023-04-05T00:43:44.361Z,100.00
2023-04-05T00:46:11.456Z,100.00
2023-04-05T00:48:42.006Z,100.00
2023-04-05T00:51:14.244Z,100.00
2023-04-05T00:53:44.948Z,100.00
2023-04-05T00:56:16.810Z,100.00
2023-04-05T00:58:43.546Z,100.00
2023-04-05T01:01:24.408Z,100.00
2023-04-05T01:04:02.713Z,100.00
2023-04-05T01:07:28.893Z,100.00
2023-04-05T01:10:03.027Z,100.00
2023-04-05T01:12:43.555Z,100.00
2023-04-05T01:15:16.078Z,100.00
2023-04-05T01:17:42.886Z,100.00
2023-04-05T01:20:15.073Z,100.00
2023-04-05T01:23:37.942Z,100.00
2023-04-05T01:26:46.062Z,100.00
2023-04-05T01:30:06.847Z,100.00
2023-04-05T01:33:19.188Z,100.00
2023-04-05T01:36:33.937Z,100.00
2023-04-05T01:39:06.196Z,100.00
2023-04-05T01:41:33.399Z,100.00
2023-04-05T01:44:00.229Z,100.00
2023-04-05T01:46:26.871Z,100.00
2023-04-05T01:48:53.565Z,100.00
2023-04-05T01:51:21.021Z,100.00
2023-04-05T01:53:47.801Z,100.00
2023-04-05T01:56:20.893Z,100.00
2023-04-05T01:58:47.765Z,100.00
2023-04-05T02:01:14.657Z,100.00
2023-04-05T02:03:44.655Z,100.00
2023-04-05T02:06:11.999Z,100.00
2023-04-05T02:08:38.689Z,100.00
2023-04-05T02:11:05.509Z,100.00
2023-04-05T02:13:34.788Z,100.00
2023-04-05T02:16:06.387Z,100.00
2023-04-05T02:18:38.667Z,100.00
2023-04-05T02:21:10.748Z,100.00
2023-04-05T02:23:38.153Z,100.00
2023-04-05T02:26:05.374Z,100.00
2023-04-05T02:28:34.484Z,100.00
2023-04-05T02:31:11.178Z,100.00
2023-04-05T02:33:44.015Z,100.00
2023-04-05T02:36:21.068Z,100.00
2023-04-05T02:38:53.039Z,100.00
2023-04-05T02:41:23.900Z,100.00
2023-04-05T02:43:56.599Z,100.00
2023-04-05T02:46:23.462Z,100.00
2023-04-05T02:48:52.642Z,100.00
2023-04-05T02:51:22.370Z,100.00
2023-04-05T02:53:49.247Z,100.00
2023-04-05T02:56:22.147Z,100.00
2023-04-05T02:58:49.337Z,100.00
2023-04-05T03:01:17.875Z,100.00
2023-04-05T03:03:44.646Z,100.00
2023-04-05T03:06:19.246Z,100.00
2023-04-05T03:08:47.632Z,100.00
2023-04-05T03:11:15.362Z,100.00
2023-04-05T03:13:45.103Z,100.00
2023-04-05T03:16:26.769Z,100.00
2023-04-05T03:18:53.539Z,100.00
2023-04-05T03:21:23.554Z,100.00
2023-04-05T03:23:50.396Z,100.00
2023-04-05T03:26:24.587Z,100.00
2023-04-05T03:28:53.316Z,100.00
2023-04-05T03:31:23.393Z,100.00
2023-04-05T03:33:50.329Z,100.00
2023-04-05T03:36:17.829Z,100.00
2023-04-05T03:38:48.308Z,100.00
2023-04-05T03:41:17.352Z,100.00
2023-04-05T03:43:44.131Z,100.00
2023-04-05T03:46:10.989Z,100.00
2023-04-05T03:48:49.261Z,100.00
2023-04-05T03:51:16.541Z,100.00
2023-04-05T03:53:43.337Z,100.00
2023-04-05T03:56:10.552Z,100.00
2023-04-05T03:58:38.595Z,100.00
2023-04-05T04:01:08.547Z,100.00
2023-04-05T04:03:37.442Z,100.00
2023-04-05T04:06:08.401Z,100.00
2023-04-05T04:08:37.882Z,100.00
2023-04-05T04:11:04.734Z,100.00
2023-04-05T04:13:31.509Z,100.00
2023-04-05T04:16:07.368Z,100.00
2023-04-05T04:18:46.695Z,100.00
2023-04-05T04:21:16.932Z,100.00
2023-04-05T04:23:45.991Z,100.00
2023-04-05T04:26:14.243Z,100.00
2023-04-05T04:28:43.996Z,100.00
2023-04-05T04:31:13.758Z,100.00
2023-04-05T04:33:44.831Z,100.00
2023-04-05T04:36:17.340Z,100.00
2023-04-05T04:38:46.088Z,100.00
2023-04-05T04:41:20.176Z,100.00
2023-04-05T04:43:46.880Z,100.00
2023-04-05T04:46:17.501Z,100.00
2023-04-05T04:48:44.263Z,100.00
2023-04-05T04:51:11.067Z,100.00
2023-04-05T04:53:48.790Z,100.00
2023-04-05T04:59:00.133Z,100.00
2023-04-05T05:01:26.957Z,100.00
2023-04-05T05:03:53.660Z,100.00
2023-04-05T05:06:22.075Z,100.00
2023-04-05T05:08:50.404Z,100.00
2023-04-05T05:11:19.289Z,100.00
2023-04-05T05:13:49.608Z,100.00
2023-04-05T05:16:22.492Z,100.00
2023-04-05T05:18:55.039Z,100.00
2023-04-05T05:24:02.545Z,100.00
2023-04-05T05:26:29.156Z,100.00
2023-04-05T05:28:56.506Z,100.00
2023-04-05T05:31:23.752Z,100.00
2023-04-05T05:33:51.113Z,100.00
2023-04-05T05:36:19.751Z,100.00
2023-04-05T05:38:47.571Z,100.00
2023-04-05T05:41:21.332Z,100.00
2023-04-05T05:43:48.257Z,100.00
2023-04-05T05:46:23.859Z,100.00
2023-04-05T05:48:50.517Z,100.00
2023-04-05T05:51:18.163Z,100.00
2023-04-05T06:43:15.509Z,100.00
2023-04-05T06:45:47.688Z,100.00
2023-04-05T06:48:21.311Z,100.00
2023-04-05T06:50:48.155Z,100.00
2023-04-05T06:53:18.212Z,100.00
2023-04-05T06:55:53.312Z,100.00
2023-04-05T06:58:22.380Z,100.00
2023-04-05T07:00:51.029Z,100.00
2023-04-05T07:03:19.015Z,100.00
2023-04-05T07:06:02.897Z,100.00
2023-04-05T07:08:33.376Z,100.00
2023-04-05T07:11:13.948Z,100.00
2023-04-05T07:13:51.094Z,100.00
2023-04-05T07:16:23.883Z,100.00
2023-04-05T07:18:51.126Z,100.00
2023-04-05T07:21:17.909Z,100.00
2023-04-05T07:23:47.046Z,100.00
2023-04-05T07:26:13.816Z,100.00
2023-04-05T07:28:48.616Z,100.00
2023-04-05T07:31:18.063Z,100.00
2023-04-05T07:34:02.003Z,100.00
2023-04-05T07:36:35.968Z,100.00
2023-04-05T07:39:05.340Z,100.00
2023-04-05T07:41:39.245Z,100.00
2023-04-05T07:44:11.842Z,100.00
2023-04-05T07:46:49.109Z,100.00
2023-04-05T07:49:27.761Z,100.00
2023-04-05T07:51:58.851Z,100.00
2023-04-05T07:54:28.427Z,100.00
2023-04-05T07:56:57.051Z,100.00
2023-04-05T08:02:15.061Z,100.00
2023-04-05T08:04:50.149Z,100.00
2023-04-05T08:07:19.242Z,100.00
2023-04-05T08:09:54.264Z,100.00
2023-04-05T08:12:20.987Z,100.00
2023-04-05T08:14:49.961Z,100.00
2023-04-05T08:17:21.610Z,100.00
2023-04-05T08:19:53.085Z,100.00
2023-04-05T08:22:20.577Z,100.00
2023-04-05T08:24:49.583Z,100.00
2023-04-05T08:27:17.054Z,100.00
2023-04-05T08:29:54.112Z,100.00
2023-04-05T08:32:20.779Z,100.00
2023-04-05T08:34:47.538Z,100.00
2023-04-05T08:37:14.229Z,100.00
2023-04-05T08:39:50.086Z,100.00
2023-04-05T08:42:34.072Z,100.00
2023-04-05T08:45:09.169Z,100.00
2023-04-05T08:47:39.132Z,100.00
2023-04-05T08:50:17.170Z,100.00
2023-04-05T08:53:01.881Z,100.00
2023-04-05T08:55:28.749Z,100.00
2023-04-05T08:58:00.889Z,100.00
2023-04-05T09:00:29.166Z,100.00
2023-04-05T09:02:59.806Z,98.79
2023-04-05T09:05:27.743Z,95.48
2023-04-05T09:07:58.487Z,87.67
2023-04-05T09:10:29.485Z,85.45
2023-04-05T09:12:56.708Z,84.12
2023-04-05T09:15:24.362Z,86.49
2023-04-05T09:17:52.497Z,88.30
2023-04-05T09:20:21.989Z,81.95
2023-04-05T09:22:51.459Z,83.69
2023-04-05T09:25:52.679Z,80.13
2023-04-05T09:28:20.681Z,82.63
2023-04-05T09:30:47.894Z,84.67
2023-04-05T09:33:24.538Z,85.98
2023-04-05T09:35:51.885Z,83.95
2023-04-05T09:38:48.604Z,78.27
2023-04-05T09:41:18.304Z,82.42
2023-04-05T09:43:48.099Z,76.36
2023-04-05T09:46:38.648Z,70.58
2023-04-05T09:49:07.854Z,72.99
2023-04-05T09:51:47.642Z,72.95
2023-04-05T09:54:14.963Z,66.45
2023-04-05T09:56:57.713Z,62.09
2023-04-05T09:59:28.148Z,57.30
2023-04-05T10:01:55.080Z,55.88
2023-04-05T10:04:23.148Z,56.63
2023-04-05T10:06:50.981Z,55.59
2023-04-05T10:09:21.271Z,54.76
2023-04-05T10:11:51.030Z,57.59
2023-04-05T10:14:17.784Z,56.19
2023-04-05T10:17:27.833Z,56.26
2023-04-05T10:20:20.982Z,56.49
2023-04-05T10:23:57.734Z,58.06
2023-04-05T10:26:59.567Z,56.34
2023-04-05T10:29:59.395Z,50.80
2023-04-05T10:33:04.118Z,49.49
2023-04-05T10:36:22.381Z,47.61
2023-04-05T10:39:12.442Z,47.98
2023-04-05T10:42:00.225Z,49.14
2023-04-05T10:44:33.361Z,45.99
2023-04-05T10:47:02.599Z,47.34
2023-04-05T10:49:56.304Z,49.16
2023-04-05T10:52:33.978Z,50.78
2023-04-05T10:55:04.633Z,52.39
2023-04-05T10:57:43.764Z,50.40
2023-04-05T11:00:14.160Z,49.26
2023-04-05T11:02:53.655Z,49.74
2023-04-05T11:06:31.781Z,49.18
2023-04-05T11:09:21.019Z,47.63
2023-04-05T11:12:02.041Z,46.48
2023-04-05T11:17:29.359Z,47.18
2023-04-05T11:20:06.548Z,45.57
2023-04-05T11:22:33.577Z,45.32
2023-04-05T11:25:05.412Z,43.93
2023-04-05T11:27:45.261Z,42.56
2023-04-05T11:30:52.897Z,44.70
2023-04-05T11:57:26.064Z,40.07
2023-04-05T12:23:54.095Z,38.46
2023-04-05T12:26:34.591Z,36.17
2023-04-05T12:29:05.306Z,34.86
2023-04-05T12:31:53.266Z,34.47
2023-04-05T12:34:28.069Z,36.96
2023-04-05T12:36:54.796Z,35.92
2023-04-05T12:39:29.106Z,36.55
2023-04-05T12:42:00.821Z,35.41
2023-04-05T12:44:39.040Z,38.02
2023-04-05T12:47:25.128Z,36.49
2023-04-05T12:50:19.183Z,35.83
2023-04-05T12:53:01.768Z,34.91
2023-04-05T12:55:30.663Z,34.93
2023-04-05T12:58:01.991Z,35.25
2023-04-05T13:00:33.701Z,34.11
2023-04-05T13:03:00.670Z,34.19
2023-04-05T13:05:31.325Z,31.54
2023-04-05T13:07:59.621Z,33.11
2023-04-05T13:10:26.671Z,32.14
2023-04-05T13:12:55.969Z,33.03
2023-04-05T13:15:26.216Z,31.94
2023-04-05T13:17:58.437Z,30.85
2023-04-05T13:20:25.294Z,31.44
2023-04-05T13:23:01.201Z,30.92
2023-04-05T13:25:28.003Z,31.48
2023-04-05T13:27:56.619Z,33.00
2023-04-05T13:30:23.726Z,33.53
2023-04-05T13:32:53.171Z,33.86
2023-04-05T13:35:20.830Z,33.98
2023-04-05T13:37:56.466Z,33.68
2023-04-05T13:40:23.409Z,33.27
2023-04-05T13:42:50.174Z,33.82
2023-04-05T13:45:20.457Z,33.45
2023-04-05T13:47:51.796Z,32.90
2023-04-05T13:50:18.696Z,32.70
2023-04-05T13:53:09.424Z,32.33
2023-04-05T13:55:36.104Z,32.04
2023-04-05T13:58:02.759Z,31.12
2023-04-05T14:00:29.687Z,29.96
2023-04-05T14:02:56.978Z,28.93
2023-04-05T14:05:23.830Z,28.44
2023-04-05T14:07:50.627Z,28.13
2023-04-05T14:10:19.675Z,28.44
2023-04-05T14:15:36.260Z,28.72
2023-04-05T14:18:04.936Z,29.69
2023-04-05T14:20:35.689Z,29.68
2023-04-05T14:23:06.624Z,29.80
2023-04-05T14:25:33.464Z,28.79
2023-04-05T14:28:03.741Z,29.35
2023-04-05T14:30:32.718Z,30.72
2023-04-05T14:32:59.877Z,31.75
2023-04-05T14:35:29.599Z,31.94
2023-04-05T14:37:56.704Z,30.30
2023-04-05T14:40:32.707Z,30.79
2023-04-05T14:42:59.799Z,29.97
2023-04-05T14:45:41.808Z,28.95
2023-04-05T14:48:11.798Z,29.57
2023-04-05T14:50:38.747Z,28.79
2023-04-05T14:53:06.743Z,28.30
2023-04-05T14:55:49.806Z,28.46
2023-04-05T14:58:30.470Z,30.64
2023-04-05T15:00:59.640Z,30.98
2023-04-05T15:03:26.798Z,31.56
2023-04-05T15:06:03.991Z,32.47
2023-04-05T15:08:31.774Z,32.35
2023-04-05T15:11:01.868Z,30.77
2023-04-05T15:13:29.026Z,31.33
2023-04-05T15:15:58.980Z,29.98
2023-04-05T15:18:25.900Z,29.98
2023-04-05T15:20:55.518Z,30.94
2023-04-05T15:23:24.746Z,31.62
2023-04-05T15:25:51.689Z,31.01
2023-04-05T15:28:18.738Z,30.83
2023-04-05T15:30:48.493Z,31.44
2023-04-05T15:33:19.006Z,31.65
2023-04-05T15:35:46.366Z,31.79
2023-04-05T15:38:17.498Z,33.13
2023-04-05T15:40:49.548Z,32.01
2023-04-05T15:43:21.795Z,33.30
2023-04-05T15:46:16.723Z,32.73
2023-04-05T15:48:46.889Z,31.52
2023-04-05T17:23:33.819Z,66.88
2023-04-05T17:26:01.460Z,68.20
2023-04-05T18:16:06.043Z,100.00
2023-04-05T18:46:07.679Z,100.00
2023-04-05T19:26:57.170Z,100.00
2023-04-05T19:29:33.039Z,100.00
2023-04-05T19:37:30.917Z,100.00
2023-04-05T21:09:05.751Z,100.00
2023-04-05T21:11:37.911Z,100.00
2023-04-05T21:14:14.981Z,100.00
2023-04-05T21:16:55.501Z,100.00
2023-04-05T21:19:56.237Z,100.00
2023-04-05T21:22:25.853Z,100.00
2023-04-05T21:24:52.667Z,100.00
2023-04-05T21:27:19.381Z,100.00
2023-04-05T21:29:50.524Z,100.00
2023-04-05T21:32:25.617Z,100.00
2023-04-05T21:34:52.550Z,100.00
2023-04-05T21:37:21.770Z,100.00
2023-04-05T21:39:48.783Z,100.00
2023-04-05T21:42:17.861Z,100.00
2023-04-05T21:44:44.595Z,100.00
2023-04-05T21:47:11.377Z,100.00
2023-04-05T21:49:59.077Z,100.00
2023-04-05T21:52:37.755Z,100.00
2023-04-05T21:55:14.640Z,100.00
2023-04-05T21:57:49.862Z,100.00
2023-04-05T22:00:21.246Z,100.00
2023-04-05T22:02:48.072Z,100.00
2023-04-05T22:05:33.787Z,100.00
2023-04-05T22:08:09.913Z,100.00
2023-04-05T22:10:43.852Z,100.00
2023-04-05T22:13:10.931Z,100.00
2023-04-05T22:15:48.167Z,100.00
2023-04-05T22:18:15.023Z,100.00
2023-04-05T22:20:50.615Z,100.00
2023-04-05T22:23:20.391Z,100.00
2023-04-05T22:25:47.264Z,100.00
2023-04-05T22:28:14.248Z,100.00
2023-04-05T22:30:47.713Z,100.00
2023-04-05T22:33:15.016Z,100.00
2023-04-05T22:35:44.949Z,100.00
2023-04-05T22:38:20.455Z,100.00
2023-04-05T22:40:49.017Z,100.00
2023-04-05T22:43:18.839Z,100.00
2023-04-05T22:45:56.857Z,100.00
2023-04-05T22:48:23.765Z,100.00
2023-04-05T22:50:53.407Z,100.00
2023-04-05T22:53:20.689Z,100.00
2023-04-05T22:55:47.520Z,100.00
2023-04-05T22:58:22.237Z,100.00
2023-04-05T23:00:49.097Z,100.00
2023-04-05T23:03:16.438Z,100.00
2023-04-05T23:05:43.351Z,100.00
2023-04-05T23:08:12.963Z,100.00
2023-04-05T23:10:44.348Z,100.00
2023-04-05T23:13:16.592Z,100.00
2023-04-05T23:15:46.761Z,100.00
2023-04-05T23:18:22.007Z,100.00
2023-04-05T23:20:49.799Z,100.00
2023-04-05T23:23:16.667Z,100.00
2023-04-05T23:25:43.601Z,100.00
2023-04-05T23:28:15.911Z,100.00
2023-04-05T23:30:46.200Z,100.00
2023-04-05T23:33:13.468Z,100.00
2023-04-05T23:35:46.882Z,100.00
2023-04-05T23:38:23.209Z,100.00
2023-04-05T23:40:50.058Z,100.00
2023-04-05T23:43:16.806Z,100.00
2023-04-05T23:45:46.302Z,100.00
2023-04-05T23:48:18.788Z,100.00
2023-04-05T23:50:50.361Z,100.00
2023-04-05T23:53:17.593Z,100.00
2023-04-05T23:55:46.583Z,100.00
2023-04-05T23:58:24.052Z,100.00
